• Join FlightAware (Why Join?)
  • Login
  • US Flag 
05:46PM EST


 

Airport Tracker/Info


-or-


 

Live Flight TrackerFlight Track Log ✈ CTL78 ✈ 19-Jul-2013 ✈ KPTK - KMBS

Flight Track Log - Related Links

Times and Time Zones

All times are in EDT time to prevent confusion due to time zone crossing. See the CTL78 flight status page for this flight to view local times or setup timezone preferences in your user account.

Time Position Orientation Groundspeed Altitude Reporting Facility
EDT Latitude Longitude Course Direction KTS MPH feet Rate Location/Type
04:21PM 42.6622 -83.4406 269° West 95 109 1,400  Level Cleveland Center
04:22PM 42.6617 -83.4717 269° West 97 112 2,200 900 Climbing Cleveland Center
04:23PM 42.6711 -83.5089 289° West 121 139 3,100 840 Climbing Cleveland Center
04:25PM 42.7031 -83.4529 52° Northeast  Level FlightAware Approximate
04:32PM 42.9738 -83.4478 321° Northwest  Level FlightAware Approximate
04:33PM 43.0055 -83.4827 321° Northwest  Level FlightAware Approximate
04:34PM 43.0371 -83.5176 321° Northwest  Level FlightAware Approximate
04:35PM 43.0687 -83.5526 321° Northwest  Level FlightAware Approximate
04:36PM 43.1003 -83.5875 321° Northwest  Level FlightAware Approximate
04:37PM 43.1319 -83.6226 321° Northwest  Level FlightAware Approximate
04:38PM 43.1635 -83.6576 321° Northwest  Level FlightAware Approximate
04:39PM 43.1951 -83.6927 321° Northwest  Level FlightAware Approximate
04:40PM 43.2263 -83.7284 318° Northwest  Level FlightAware Approximate
04:41PM 43.2567 -83.7655 318° Northwest  Level FlightAware Approximate
04:42PM 43.2871 -83.8026 318° Northwest  Level FlightAware Approximate
04:43PM 43.3174 -83.8397 318° Northwest  Level FlightAware Approximate
04:44PM 43.3478 -83.8769 318° Northwest  Level FlightAware Approximate
04:45PM 43.3791 -83.9124 324° Northwest  Level FlightAware Approximate
04:46PM 43.4120 -83.9453 324° Northwest  Level FlightAware Approximate
04:47PM 43.4449 -83.9781 324° Northwest  Level FlightAware Approximate
04:48PM 43.4778 -84.0110 324° Northwest  Level FlightAware Approximate
04:49PM 43.5075 -84.0483 305° West  Level FlightAware Approximate
04:50PM 43.5167 -84.0667 305° West  Level FlightAware Approximate
04:51PM 43.5329 -84.0796 305° West  Level Estimated
04:52PM 43.5329 -84.0796 305° West  Level Estimated
04:53PM 43.5329 -84.0796 305° West  Level Estimated
04:54PM 43.5329 -84.0796 305° West  Level Estimated